Tiempo atmosférico en la estación meteorológica de Sevilla Aeropuerto, Sevilla (34 m.)



Fecha
DESCASC
Temp. máxima en grados centígrados (hora)
DESCASC
Temp. mínima en grados centígrados (hora)
DESCASC
Temp. media en grados centígrados
DESCASC
Racha de viento máxima en m/sg (hora)
DESCASC
Velocidad máxima media en intervalos de 10 minutos(hora)
DESCASC
Precipitaciones diarias en mm
DESCASC
Precipitaciones de 00:00 a 06:00 en mm
DESCASC
Precipitaciones de 06:00 a 12:00 en mm
DESCASC
Precipitaciones de 12:00 a 18:00 en mm
DESCASC
Precipitaciones de 18:00 a 24:00 en mm
DESCASC
20-09-2018 34.4 (16:40) 21.6 (08:20) 28 8.33 (17:40) 4.72 (20:20) 0 0 0 0 0
19-09-2018 35.7 (18:00) 21.8 (08:20) 28.8 7.22 (23:50) 5 (23:50) 0 0 0 0 0
18-09-2018 33.8 (17:40) 20.7 (08:10) 27.3 -- (--) -- (--) -- -- 0 0 0
17-09-2018 33.7 (18:00) 21.5 (07:40) 27.6 8.89 (21:10) 5.56 (21:50) 0 0 0 0 0
16-09-2018 32.4 (17:40) 20.9 (00:00) 26.7 9.17 (13:40) 5.56 (12:30) 0 0 0 0 0
15-09-2018 32 (18:10) 19.9 (00:00) 25.9 16.39 (20:00) 9.44 (20:00) 4.6 0 0 0 4.6
14-09-2018 31.3 (17:40) 18.2 (00:00) 24.8 18.61 (20:20) 11.94 (20:20) 19.6 0 0 0 19.6
13-09-2018 33.4 (17:20) 20.9 (00:00) 27.2 10.83 (19:10) 7.78 (20:00) 0 0 0 0 0
12-09-2018 35.7 (16:50) 21.4 (00:00) 28.6 9.72 (16:50) 6.94 (20:10) 0 0 0 0 0
11-09-2018 34.6 (17:20) 20.8 (00:00) 27.7 11.67 (13:30) 7.5 (13:30) 0 0 0 0 0
10-09-2018 34.6 (18:10) 18.1 (00:00) 26.3 12.78 (17:50) 8.33 (15:00) 0 0 0 0 0
09-09-2018 33.9 (17:30) 20.8 (00:00) 27.4 11.39 (19:50) 7.22 (19:50) 0 0 0 0 0
08-09-2018 27.7 (18:20) 19.4 (00:00) 23.6 6.67 (00:10) 4.44 (00:10) 0 0 0 0 0
07-09-2018 30.5 (17:40) 17.6 (00:00) 24.1 8.89 (16:10) 6.39 (21:00) 0 0 0 0 0
06-09-2018 31.6 (17:00) 17.8 (00:00) 24.7 10.28 (18:50) 7.78 (20:30) 0 0 0 0 0
05-09-2018 30 (16:20) 18.9 (00:00) 24.4 10.83 (20:00) 7.78 (20:00) 0 0 0 0 0
04-09-2018 29.5 (17:30) 18 (00:00) 23.8 10.28 (18:20) 7.78 (20:10) 0 0 0 0 0
03-09-2018 28.9 (15:00) 21.4 (00:00) 25.1 12.78 (02:40) 9.17 (02:40) 0 0 0 0 0
02-09-2018 38.3 (14:40) 22.5 (00:00) 30.4 10.28 (18:20) 6.39 (18:50) 0 0 0 0 0
01-09-2018 39 (14:50) 21.8 (00:00) 30.4 9.72 (13:30) 5.83 (15:40) 0 0 0 0 0
31-08-2018 39 (17:10) 21.4 (00:00) 30.2 11.67 (13:40) 6.39 (14:00) 0 0 0 0 0
30-08-2018 36.1 (18:30) 18.8 (00:00) 27.4 7.22 (00:10) 4.72 (00:10) 0 0 0 0 0
29-08-2018 34.6 (18:20) 21.1 (00:00) 27.8 9.17 (00:20) 7.22 (19:00) 0 0 0 0 0
28-08-2018 36.6 (17:40) 21.7 (00:00) 29.1 9.72 (03:20) 6.67 (01:50) 0 0 0 0 0
27-08-2018 39.9 (18:30) 21.6 (00:00) 30.8 12.78 (12:30) 8.33 (13:30) 0 0 0 0 0
26-08-2018 38.5 (17:10) 18.8 (00:00) 28.6 8.33 (16:30) 5 (20:30) 0 0 0 0 0
25-08-2018 37.2 (17:20) 21.5 (00:00) 29.4 9.72 (19:50) 7.22 (19:40) 0 0 0 0 0
24-08-2018 39.1 (17:10) 21.3 (00:00) 30.2 8.89 (20:00) 6.94 (20:00) 0 0 0 0 0
23-08-2018 38.7 (17:10) 21.8 (00:00) 30.3 9.17 (17:00) 6.67 (18:40) 0 0 0 0 0

Gráficas

Temp. máximas Temp. mínimas Temp. medias Precipitaciones Rachas de viento máximas Velocidades máximas media en intervalos de 10 minutos

Datos horarios

Fecha y hora oficial Temperatura (ºC) Velocidad del viento (km/h) Dirección del viento Racha (km/h) Dirección de racha Precipitación (mm) Presión (hPa) Tendencia (hPa) Humedad (%)
2018-09-21 23:00:00 26 0 Calma 8 Este 0 1014.2 1.7 59
2018-09-21 22:00:00 27.7 0 Calma 9 Noroeste 0 1013.6 1.3 47
2018-09-21 21:00:00 31.4 6 Noroeste 15 Noroeste 0 1012.9 0.5 29
2018-09-21 20:00:00 33.5 8 Noroeste 17 Noroeste 0 1012.5 -0.2 23
2018-09-21 19:00:00 34.7 8 Oeste 22 Noroeste 0 1012.3 -0.8 22
2018-09-21 18:00:00 34.7 6 Norte 21 Noroeste 0 1012.4 -1.4 25
2018-09-21 17:00:00 34.9 6 Noroeste 18 Sudeste 0 1012.7 -1.8 26
2018-09-21 16:00:00 34 9 Norte 18 Norte 0 1013.1 -2.1 29
2018-09-21 15:00:00 32.9 6 Nordeste 15 Nordeste 0 1013.8 -1.7 39
2018-09-21 14:00:00 31.7 5 Sudeste 11 Este -- 1014.5 -0.6 44
2018-09-21 13:00:00 29.3 6 Nordeste 15 Norte -- 1015.2 0.6 52
2018-09-21 12:00:00 27.9 5 Norte 21 Nordeste -- 1015.5 0.9 59
2018-09-21 11:00:00 26.3 3 Nordeste 9 Norte 0 1015.1 1.1 66
2018-09-21 10:00:00 24.2 0 Calma 8 Nordeste 0 1014.6 1.2 78
2018-09-21 09:00:00 21.5 0 Calma 8 Sur 0 1014.6 1.3 90
2018-09-21 08:00:00 21.2 -- -- -- -- 0 1014 0.5 88
2018-09-21 07:00:00 21.3 5 Sudeste 9 Sur 0 1013.4 -0.4 89
2018-09-21 06:00:00 21.7 8 Sudeste 9 Sur 0 1013.3 -0.7 87
2018-09-21 05:00:00 22.5 3 Sur 9 Sur 0 1013.5 -0.4 82
2018-09-21 04:00:00 23.1 5 Sur 15 Sudoeste 0 1013.8 -0.2 80
2018-09-21 03:00:00 23.6 10 Sudoeste 17 Sudoeste 0 1014 0.1 76
2018-09-21 02:00:00 23.8 10 Sur 15 Sudoeste 0 1013.9 0.3 75
2018-09-21 01:00:00 24.3 10 Sur 17 Sur 0 1014 1 74
2018-09-21 00:00:00 25.1 13 Sudoeste 17 Sudoeste 0 1013.9 1.4 71
2018-09-20 23:00:00 26.4 12 Sudoeste 18 Sudoeste 0 1013.6 1.4 67
2018-09-20 22:00:00 27.7 14 Sudoeste 22 Sudoeste 0 1013 0.8 62
2018-09-20 21:00:00 29.1 16 Sudoeste 24 Sudoeste 0 1012.5 0.2 56
2018-09-20 20:00:00 32 10 Sudoeste 21 Sudoeste 0 1012.2 -0.6 32
2018-09-20 19:00:00 33 14 Sudoeste 26 Oeste 0 1012.2 -1 32
2018-09-20 18:00:00 33.6 13 Sudoeste 30 Sudoeste 0 1012.3 -1.6 31
2018-09-20 17:00:00 34 12 Sudoeste 24 Sudoeste 0 1012.8 -1.9 31
2018-09-20 16:00:00 33.7 6 Sudeste 22 Este 0 1013.2 -2.3 32
2018-09-20 15:00:00 33.3 8 Sudeste 18 Sudeste 0 1013.9 -1.8 32
2018-09-20 14:00:00 31.6 4 Este 17 Sudeste 0 1014.7 -1.2 42
2018-09-20 13:00:00 30 5 Nordeste 17 Norte 0 1015.5 -0.3 50
2018-09-20 12:00:00 28.6 9 Nordeste 15 Nordeste 0 1015.7 0.3 55
2018-09-20 11:00:00 26.1 3 Nordeste 15 Norte 0 1015.9 0.9 69
2018-09-20 10:00:00 24 6 Noroeste 11 Oeste 0 1015.8 1 81
2018-09-20 09:00:00 22.3 5 Oeste 8 Oeste 0 1015.4 0.7 91
2018-09-20 08:00:00 21.8 5 Este 13 Norte 0 1015 0.1 90
2018-09-20 07:00:00 22.1 3 Nordeste 8 Este 0 1014.8 -0.1 91
2018-09-20 06:00:00 22.4 0 Calma 9 Sudoeste 0 1014.7 -0.5 89
2018-09-20 05:00:00 23 2 Sudoeste 13 Sur 0 1014.9 -0.3 87
2018-09-20 04:00:00 23.3 13 Sur 18 Sur 0 1014.9 -0.2 86
2018-09-20 03:00:00 23.6 12 Sudoeste 21 Sur 0 1015.2 0 80
2018-09-20 02:00:00 23.8 14 Sur 21 Sudoeste 0 1015.2 0.2 80
2018-09-20 01:00:00 24.3 14 Sudoeste 22 Sudoeste 0 1015.1 0.8 77
2018-09-20 00:00:00 25 17 Sudoeste 26 Sur 0 1015.2 1.6 73
2018-09-19 23:00:00 27.8 13 Sudoeste 18 Sudoeste 0 1015 1.8 57
2018-09-19 22:00:00 29.8 9 Sudoeste 18 Oeste 0 1014.3 1.4 47
2018-09-19 21:00:00 30.8 12 Sudoeste 22 Sudoeste 0 1013.6 0.8 44
2018-09-19 20:00:00 34.1 0 Calma 9 Este 0 1013.2 -0.1 25
2018-09-19 19:00:00 35 5 Sudeste 15 Sudeste 0 1012.9 -1.1 20
2018-09-19 18:00:00 35.6 3 Sur 17 Sudoeste 0 1012.8 -1.8 20
2018-09-19 17:00:00 34.8 5 Nordeste 11 Sudeste 0 1013.3 -1.8 28
2018-09-19 16:00:00 34.4 8 Sudoeste 17 Nordeste 0 1014 -1.6 31
2018-09-19 15:00:00 33.1 6 Sur 13 Sur 0 1014.6 -1.2 36
2018-09-19 14:00:00 32.1 8 Sudeste 15 Nordeste 0 1015.1 -0.3 41
2018-09-19 13:00:00 30.5 5 Este 13 Nordeste 0 1015.6 0.6 46
2018-09-19 12:00:00 28.6 6 Nordeste 11 Nordeste 0 1015.8 1.2 60
2018-09-19 11:00:00 26.8 2 Sudeste 11 Nordeste 0 1015.4 1.2 72
2018-09-19 10:00:00 24.1 8 Nordeste 15 Sudeste 0 1015 1.1 84
2018-09-19 09:00:00 22.3 7 Nordeste 11 Nordeste 0 1014.6 0.9 95
2018-09-19 08:00:00 22.1 6 Nordeste 13 Norte 0 1014.2 0.6 95
2018-09-19 07:00:00 22 5 Sudeste 8 Sudeste 0 1013.9 0.3 94
2018-09-19 06:00:00 22.2 0 Calma 8 Sudeste 0 1013.7 0 94
2018-09-19 05:00:00 22.5 3 Este 13 Sudeste 0 1013.6 0.1 93
2018-09-19 04:00:00 23.1 6 Sudoeste 9 Sudoeste 0 1013.6 0.3 91
2018-09-19 03:00:00 23.3 8 Sudoeste 15 Sudoeste 0 1013.7 0.4 90
2018-09-19 02:00:00 23.6 9 Sudoeste 21 Sur 0 1013.5 0.3 86
2018-09-19 01:00:00 24.1 13 Sur 22 Sudoeste 0 1013.3 0.9 83
2018-09-19 00:00:00 25 12 Sur 21 Sudoeste 0 1013.3 1.7 75
2018-09-18 23:00:00 26 10 Sur 15 Sudoeste 0 1013.2 2.3 70
2018-09-18 22:00:00 27.5 13 Sur 18 Sudoeste 0 1012.4 1.7 62
2018-09-18 21:00:00 28.7 11 Sudoeste 24 Sudoeste 0 1011.6 1.2 56
2018-09-18 20:00:00 30.4 18 Sudoeste 30 Sudoeste 0 1010.9 0.3 47
2018-09-18 19:00:00 32.1 17 Sudoeste 26 Sudoeste 0 1010.7 -0.4 44
2018-09-18 18:00:00 33.6 15 Sudoeste 26 Sudoeste 0 1010.4 -1.3 33
2018-09-18 17:00:00 33.4 10 Sudoeste 22 Sudoeste 0 1010.6 -1.5 34
2018-09-18 16:00:00 33.2 9 Sudoeste 22 Oeste 0 1011.1 -1.4 34
2018-09-18 15:00:00 32 7 Sur 22 Sudoeste 0 1011.7 -1.1 43
2018-09-18 14:00:00 31 5 Sudoeste 15 Sudoeste 0 1012.1 -0.8 46
2018-09-18 13:00:00 29.7 4 Este 15 Sudeste 0 1012.5 0.2 54
2018-09-18 12:00:00 27.9 5 Sudeste 13 Sudeste 0 1012.8 1 62
2018-09-18 11:00:00 25.6 9 Sudeste 15 Sur 0 1012.9 1.6 76
2018-09-18 10:00:00 23.7 4 Nordeste 13 Norte 0 1012.3 1.5 80
2018-09-18 09:00:00 21.4 10 Nordeste 17 Nordeste 0 1011.8 1.2 89
2018-09-18 08:00:00 20.9 7 Nordeste 13 Norte 0 1011.3 -- 89
2018-09-18 07:00:00 21.5 5 Norte 21 Norte 0 1010.8 0.1 85
2018-09-18 06:00:00 21.8 3 Nordeste 5 Norte 0 1010.6 -0.2 86
2018-09-18 05:00:00 -- -- -- -- -- -- -- -- --
2018-09-18 04:00:00 22.6 5 Nordeste 9 Nordeste 0 1010.7 -0.4 81
2018-09-18 03:00:00 23.6 0 Calma 8 Norte 0 1010.8 0.1 67
2018-09-18 02:00:00 23.7 0 Calma 8 Sur 0 1010.9 0.2 69
2018-09-18 01:00:00 24.7 0 Calma 15 Oeste 0 1011.1 1 62
2018-09-18 00:00:00 25.2 11 Noroeste 15 Noroeste 0 1010.7 1.3 58
2018-09-17 23:00:00 25.9 9 Oeste 21 Noroeste 0 1010.7 2.1 58
2018-09-17 22:00:00 27.6 17 Oeste 32 Oeste 0 1010.1 1.6 52
2018-09-17 21:00:00 28.9 16 Sudoeste 26 Sudoeste 0 1009.4 0.8 61
2018-09-17 20:00:00 30.9 9 Sudoeste 18 Sur 0 1008.6 -0.7 45
2018-09-17 19:00:00 32.6 10 Sudoeste 22 Sudoeste 0 1008.5 -1.5 42
2018-09-17 18:00:00 33.5 6 Sudoeste 18 Norte 0 1008.6 -2.3 34
2018-09-17 17:00:00 32.3 5 Sudoeste 21 Noroeste 0 1009.3 -2.6 39
2018-09-17 16:00:00 32.7 5 Sur 17 Noroeste 0 1010 -2.4 39
2018-09-17 15:00:00 32.2 6 Norte 13 Oeste 0 1010.9 -1.8 42
2018-09-17 14:00:00 30.9 5 Este 18 Este 0 1011.9 -0.9 47
2018-09-17 13:00:00 29.9 9 Este 22 Este 0 1012.4 -0.3 51
2018-09-17 12:00:00 28.4 11 Sudeste 26 Este 0 1012.7 0.3 57
2018-09-17 11:00:00 26.9 15 Este 24 Este 0 1012.8 0.3 65
2018-09-17 10:00:00 24.5 13 Este 21 Este 0 1012.7 0.5 77
2018-09-17 09:00:00 21.9 10 Nordeste 15 Nordeste 0 1012.4 -0.3 88
2018-09-17 08:00:00 21.6 13 Nordeste 18 Nordeste 0 1012.5 -0.7 87
2018-09-17 07:00:00 21.7 9 Nordeste 15 Norte 0 1012.2 -0.7 92
2018-09-17 06:00:00 22.3 0 Calma 8 Sudeste 0 1012.7 -0.3 87
2018-09-17 05:00:00 22.7 4 Sur 11 Sur 0 1013.2 0 84
2018-09-17 04:00:00 22.3 8 Sudeste 11 Sudeste 0 1012.9 -0.4 87
2018-09-17 03:00:00 23.4 6 Sudeste 11 Oeste 0 1013 -0.4 82
2018-09-17 02:00:00 24.5 10 Sudoeste 17 Sudoeste 0 1013.2 0 73
2018-09-17 01:00:00 25.2 9 Sur 17 Sudoeste 0 1013.3 0.5 69
2018-09-17 00:00:00 25.9 9 Sur 24 Sudoeste 0 1013.4 1 66
2018-09-16 23:00:00 26.4 14 Sur 22 Sur 0 1013.2 0.9 66
2018-09-16 22:00:00 27.1 4 Este -- -- 0 1012.8 0.5 65
2018-09-16 21:00:00 -- 9 Nordeste 13 Nordeste 0 1012.4 0.1 --
2018-09-16 20:00:00 30.7 12 Nordeste 17 Nordeste 0 1012.3 -0.4 45
2018-09-16 19:00:00 31.7 11 Nordeste 22 Norte 0 1012.3 -1 41
2018-09-16 18:00:00 32.2 13 Nordeste 28 Nordeste 0 1012.3 -2 40
2018-09-16 17:00:00 31.9 11 Nordeste 24 Este 0 1012.7 -2.3 40
2018-09-16 16:00:00 31.3 13 Este 26 Este 0 1013.3 -2.5 41
2018-09-16 15:00:00 30.8 14 Este 32 Este 0 1014.3 -2 44
2018-09-16 14:00:00 29.6 14 Este 33 Este 0 1015 -1.5 52
2018-09-16 13:00:00 28.4 18 Este 32 Este 0 1015.8 -0.3 57
2018-09-16 12:00:00 27 17 Este 26 Este 0 1016.3 0.6 68
2018-09-16 11:00:00 24.9 13 Nordeste 22 Este 0 1016.5 1.5 77
2018-09-16 10:00:00 22.9 10 Norte 15 Nordeste 0 1016.1 1.2 88
2018-09-16 09:00:00 21.7 6 Nordeste 13 Este 0 1015.7 0.7 93
2018-09-16 08:00:00 20.9 9 Nordeste 17 Nordeste 0 1015 0 95
2018-09-16 07:00:00 21.2 8 Nordeste 15 Norte 0 1014.9 -0.7 96
2018-09-16 06:00:00 21.9 10 Nordeste 13 Nordeste 0 1015 -0.7 94
2018-09-16 05:00:00 22.3 0 Calma 15 Sur 0 1015 -1 89
2018-09-16 04:00:00 22.4 13 Sudeste 18 Sudeste 0 1015.6 -0.4 88
2018-09-16 03:00:00 22.5 8 Este 13 Este 0 1015.7 -0.2 89
2018-09-16 02:00:00 22.4 10 Este 15 Este 0 1016 0.4 89
2018-09-16 01:00:00 22.2 9 Nordeste 17 Este 0 1016 1.6 93
2018-09-16 00:00:00 21.8 8 Nordeste 18 Este 0 1015.9 2.5 92
2018-09-15 23:00:00 21.6 10 Nordeste 21 Nordeste 0.1 1015.6 1.3 91
2018-09-15 22:00:00 22.9 11 Norte 24 Sur 1.5 1014.4 2.2 89
2018-09-15 21:00:00 22.7 13 Sur 42 Nordeste 3 1013.4 1.3 87
2018-09-15 20:00:00 25.5 34 Nordeste 59 Nordeste 0 1014.3 1.9 63
2018-09-15 19:00:00 31.4 18 Sudeste 30 Sudeste 0 1012.2 -0.6 40
2018-09-15 18:00:00 31.7 11 Sur 15 Sur 0 1012.1 -1.2 38
2018-09-15 17:00:00 31.3 7 Sur 15 Sur 0 1012.4 -1.6 40
2018-09-15 16:00:00 30.2 5 Este 17 Nordeste 0 1012.8 -1.7 42
2018-09-15 15:00:00 29.1 9 Este 21 Nordeste 0 1013.3 -1.7 50
2018-09-15 14:00:00 27.6 9 Norte 21 Nordeste 0 1014 -0.8 55
2018-09-15 13:00:00 26.1 9 Nordeste 17 Este 0 1014.5 0.1 66
2018-09-15 12:00:00 24.2 9 Norte 18 Norte 0 1015 0.9 78
2018-09-15 11:00:00 23 10 Norte 17 Norte 0 1014.8 1.3 82
2018-09-15 10:00:00 21.4 5 Nordeste 13 Nordeste 0 1014.4 1.3 90
2018-09-15 09:00:00 20.5 7 Nordeste 9 Nordeste 0 1014.1 1.2 95
2018-09-15 08:00:00 20.2 8 Noroeste 15 Norte 0 1013.5 0.3 95
2018-09-15 07:00:00 20.4 7 Norte 17 Nordeste 0 1013.1 0 94
2018-09-15 06:00:00 20.5 7 Norte 13 Norte 0 1012.9 -0.7 95
2018-09-15 05:00:00 20.4 5 Nordeste 8 Nordeste 0 1013.2 -0.7 93
2018-09-15 04:00:00 20.3 4 Nordeste 13 Este 0 1013.1 -0.7 94
2018-09-15 03:00:00 20.4 7 Este 13 Sudeste 0 1013.6 -1.7 93
2018-09-15 02:00:00 20.4 7 Sudeste 11 Sur 0 1013.9 -1.6 93
2018-09-15 01:00:00 20.4 8 Sur 13 Sur 0 1013.8 -2 91
2018-09-15 00:00:00 19.9 0 Calma 18 Norte 1 1015.3 0.6 93
2018-09-14 23:00:00 19.6 13 Noroeste 22 Noroeste 3.4 1015.5 2.5 94
2018-09-14 22:00:00 19.4 8 Oeste 30 Sudeste 2.6 1015.8 3.7 94
2018-09-14 21:00:00 18.5 10 Este 67 Este 12.6 1014.7 3.1 93
2018-09-14 20:00:00 28 13 Sur 30 Sudoeste 0 1013 1 62
2018-09-14 19:00:00 28.4 21 Sudoeste 32 Sudoeste 0 1012.1 -0.5 61
2018-09-14 18:00:00 30.5 23 Sudoeste 32 Sudoeste 0 1011.6 -1.7 50
2018-09-14 17:00:00 29.9 20 Sudoeste 32 Sudoeste 0 1012 -1.8 50
2018-09-14 16:00:00 28.8 24 Sudoeste 33 Sudoeste 0 1012.6 -1.9 53
2018-09-14 15:00:00 29.3 11 Sur 24 Sudoeste 0 1013.3 -1.4 51
2018-09-14 14:00:00 28.6 4 Sudeste 21 Sudeste 0 1013.8 -0.4 55
2018-09-14 13:00:00 28.1 5 Este 11 Sur 0 1014.5 0.5 58
2018-09-14 12:00:00 26.4 2 Sudeste 13 Norte 0 1014.7 0.9 64
2018-09-14 11:00:00 24.1 8 Norte 15 Norte 0 1014.2 0.7 73
2018-09-14 10:00:00 22.4 10 Noroeste 17 Norte 0 1014 0.7 82
2018-09-14 09:00:00 22 5 Norte 11 Sudoeste 0 1013.8 0.6 83
2018-09-14 08:00:00 21.6 5 Sudoeste 9 Sudoeste 0 1013.5 0 85
2018-09-14 07:00:00 21.6 7 Oeste 13 Oeste 0 1013.3 -0.5 87
2018-09-14 06:00:00 21.2 7 Sudoeste 11 Sudoeste 0 1013.2 -0.8 89
2018-09-14 05:00:00 21.1 6 Sudoeste 13 Oeste 0 1013.5 -0.9 89
2018-09-14 04:00:00 21.4 5 Sur 18 Sur 0 1013.8 -0.8 88
2018-09-14 03:00:00 21.6 10 Sur 18 Sudoeste 0 1014 -0.3 88
2018-09-14 02:00:00 22.2 14 Sudoeste 26 Sudoeste 0 1014.4 0.2 86
2018-09-14 01:00:00 22.1 21 Sudoeste 30 Sudoeste 0 1014.6 0.8 87
2018-09-14 00:00:00 22.3 19 Sudoeste 28 Sudoeste 0 1014.3 1.3 88
2018-09-13 23:00:00 22.8 18 Sudoeste 32 Sudoeste 0 1014.2 1.5 84
2018-09-13 22:00:00 23.9 22 Sudoeste 33 Sudoeste 0 1013.8 1.3 79
2018-09-13 21:00:00 25.7 17 Sudoeste 37 Sudoeste 0 1013 0.4 69
2018-09-13 20:00:00 27.7 28 Sudoeste 39 Sudoeste 0 1012.7 0 63
2018-09-13 19:00:00 30.6 22 Sur 37 Sur 0 1012.5 -1.2 51
2018-09-13 18:00:00 32.4 20 Sudoeste 30 Sudoeste 0 1012.6 -2 42
2018-09-13 17:00:00 33 15 Sudoeste 28 Sudoeste 0 1012.7 -2.7 35
2018-09-13 16:00:00 32 16 Sudoeste 28 Sudoeste 0 1013.7 -2.3 38
2018-09-13 15:00:00 31 13 Sudoeste 22 Sudoeste 0 1014.6 -1.8 40
2018-09-13 14:00:00 29.9 15 Oeste 22 Oeste 0 1015.4 -0.7 50
2018-09-13 13:00:00 28.5 10 Sudoeste 17 Sudoeste 0 1016 0 55
2018-09-13 12:00:00 27.2 6 Sur 15 Sur 0 1016.4 0.7 60
2018-09-13 11:00:00 25.3 5 Sudoeste 15 Sudoeste 0 1016.1 0.6 70
2018-09-13 10:00:00 23.4 6 Sudoeste 11 Sudoeste 0 1016 0.9 79
2018-09-13 09:00:00 22.6 4 Sur 9 Sur 0 1015.7 0.9 83
2018-09-13 08:00:00 22.2 6 Sudoeste 18 Sudoeste 0 1015.5 0.6 87
2018-09-13 07:00:00 22.1 13 Sudoeste 21 Oeste 0 1015.1 -0.1 91
2018-09-13 06:00:00 21.4 11 Sur 17 Sur 0 1014.8 -1 96
2018-09-13 05:00:00 21 9 Sur 11 Sur 0 1014.9 -1.4 93
2018-09-13 04:00:00 21.5 5 Sudeste 8 Este 0 1015.2 -1.7 89
2018-09-13 03:00:00 22.2 4 Sur 9 Noroeste 0 1015.8 -1.3 87
2018-09-13 02:00:00 22.9 9 Noroeste 15 Oeste 0 1016.3 -0.3 84
2018-09-13 01:00:00 23.9 16 Oeste 26 Oeste 0 1016.9 1 81
2018-09-13 00:00:00 24.7 15 Sudoeste 24 Sudoeste 0 1017.1 1.9 76
2018-09-12 23:00:00 26 15 Sudoeste 26 Sudoeste 0 1016.6 2 66
2018-09-12 22:00:00 27.2 14 Sudoeste 24 Oeste 0 1015.9 1.4 60
2018-09-12 21:00:00 28.7 17 Sudoeste 35 Sudoeste 0 1015.2 0.7 52
2018-09-12 20:00:00 31.3 23 Sudoeste 33 Sudoeste 0 1014.6 -0.2 43
2018-09-12 19:00:00 33.4 23 Sudoeste 33 Sudoeste 0 1014.5 -0.7 41
2018-09-12 18:00:00 35 13 Sudoeste 24 Sudoeste 0 1014.5 -1.4 30
2018-09-12 17:00:00 35.1 9 Sudoeste 35 Sudoeste 0 1014.8 -1.8 30
2018-09-12 16:00:00 35.1 8 Sudoeste 21 Sudoeste 0 1015.2 -2.1 29
2018-09-12 15:00:00 33.8 9 Norte 21 Noroeste 0 1015.9 -1.5 33
2018-09-12 14:00:00 33 7 Norte 18 Noroeste 0 1016.6 -0.7 36
2018-09-12 13:00:00 32.4 7 Este 18 Sudeste 0 1017.3 0.4 40
2018-09-12 12:00:00 31 4 Este 15 Sur 0 1017.4 0.7 47
2018-09-12 11:00:00 28.2 9 Nordeste 17 Este 0 1017.3 1.3 59
2018-09-12 10:00:00 25.2 10 Nordeste 17 Nordeste 0 1016.9 1.2 71
2018-09-12 09:00:00 22.5 8 Nordeste 17 Nordeste 0 1016.7 1.2 79
2018-09-12 08:00:00 21.9 6 Nordeste 13 Nordeste 0 1016 0.4 81
2018-09-12 07:00:00 22.2 10 Este 15 Nordeste 0 1015.7 0.3 79
2018-09-12 06:00:00 21.8 11 Norte 15 Nordeste 0 1015.5 -0.1 78
2018-09-12 05:00:00 22.5 0 Calma 9 Oeste 0 1015.6 0 73
2018-09-12 04:00:00 23.4 7 Oeste 8 Oeste 0 1015.4 -0.3 69
2018-09-12 03:00:00 24.2 2 Nordeste 11 Norte 0 1015.6 0.2 68
2018-09-12 02:00:00 25 10 Norte 13 Norte 0 1015.6 0.7 65
2018-09-12 01:00:00 25.3 8 Norte 11 Oeste 0 1015.7 1.8 65
2018-09-12 00:00:00 26.6 6 Oeste 17 Sudoeste 0 1015.4 2.6 59
2018-09-11 23:00:00 27.6 12 Sudoeste 21 Sudoeste 0 1014.9 2.7 57
2018-09-11 22:00:00 29.4 12 Sur 21 Sur 0 1013.9 1.7 49
2018-09-11 21:00:00 30.9 13 Sudoeste 21 Sudoeste 0 1012.8 0.2 43
2018-09-11 20:00:00 33.4 12 Sudeste 21 Sudeste 0 1012.2 -0.7 31
2018-09-11 19:00:00 34.2 13 Este 35 Este 0 1012.2 -1.4 29
2018-09-11 18:00:00 34.4 18 Este 30 Este 0 1012.6 -1.8 30
2018-09-11 17:00:00 34.2 18 Este 35 Este 0 1012.9 -2.4 30
2018-09-11 16:00:00 33.4 15 Este 32 Este 0 1013.6 -2.3 32
2018-09-11 15:00:00 33 18 Este 41 Este 0 1014.4 -1.8 34
2018-09-11 14:00:00 32.1 22 Este 42 Este 0 1015.3 -0.8 37
2018-09-11 13:00:00 31.3 22 Este 37 Este 0 1015.9 0.2 41
2018-09-11 12:00:00 29.8 24 Este 35 Este 0 1016.2 0.7 47
2018-09-11 11:00:00 27.9 23 Este 33 Este 0 1016.1 0.9 55
2018-09-11 10:00:00 26 20 Nordeste 30 Este 0 1015.7 0.5 62
2018-09-11 09:00:00 23.1 13 Nordeste 21 Nordeste 0 1015.5 0.6 72
2018-09-11 08:00:00 20.9 12 Nordeste 17 Nordeste 0 1015.2 0 80
2018-09-11 07:00:00 21.6 9 Nordeste 13 Nordeste 0 1015.2 0.1 74
2018-09-11 06:00:00 21.4 9 Nordeste 15 Nordeste 0 1014.9 -0.5 72
2018-09-11 05:00:00 21.7 9 Nordeste 13 Nordeste 0 1015.2 -0.3 66
2018-09-11 04:00:00 22.1 8 Nordeste 11 Nordeste 0 1015.1 -0.4 63
2018-09-11 03:00:00 22.7 0 Calma 9 Este 0 1015.4 0 65
2018-09-11 02:00:00 23.2 0 Calma 9 Este 0 1015.5 0.6 65
2018-09-11 01:00:00 24.6 4 Norte 13 Sudoeste 0 1015.5 1.4 57
2018-09-11 00:00:00 26.5 11 Sudoeste 21 Sudoeste 0 1015.4 2.4 52
2018-09-10 23:00:00 27.7 13 Sudoeste 18 Sudoeste 0 1014.9 2.2 44
2018-09-10 22:00:00 28.7 13 Este 18 Este 0 1014.1 1.3 31
2018-09-10 21:00:00 30.5 9 Este 26 Este 0 1013 0.2 26
2018-09-10 20:00:00 33.2 17 Este 28 Este 0 1012.7 -0.6 21
2018-09-10 19:00:00 34 15 Este 30 Este 0 1012.8 -1.2 20
2018-09-10 18:00:00 34.5 15 Este 46 Este 0 1012.8 -2 20
2018-09-10 17:00:00 34.2 16 Este 37 Este 0 1013.3 -2.2 20
2018-09-10 16:00:00 33.5 21 Este 42 Este 0 1014 -2.2 22
2018-09-10 15:00:00 32.8 30 Nordeste 42 Nordeste 0 1014.8 -1.7 24
2018-09-10 14:00:00 31.4 18 Este 35 Este 0 1015.5 -0.9 29
2018-09-10 13:00:00 29.8 22 Este 32 Este 0 1016.2 0 34
2018-09-10 12:00:00 27.6 21 Este 32 Este 0 1016.5 0.4 41
2018-09-10 11:00:00 25.8 20 Nordeste 28 Este 0 1016.4 0.6 46
2018-09-10 10:00:00 22.7 12 Nordeste 18 Nordeste 0 1016.2 0.7 59
2018-09-10 09:00:00 20.7 9 Nordeste 15 Nordeste 0 1016.1 0.4 67
2018-09-10 08:00:00 18.2 4 Este 9 Norte 0 1015.8 -0.2 83
2018-09-10 07:00:00 18.6 0 Calma 11 Nordeste 0 1015.5 -0.1 80
2018-09-10 06:00:00 19.9 11 Nordeste 17 Este 0 1015.7 0.1 79
2018-09-10 05:00:00 20.1 10 Nordeste 15 Nordeste 0 1016 0.3 79
2018-09-10 04:00:00 20.1 8 Nordeste 17 Nordeste 0 1015.6 -0.1 79
2018-09-10 03:00:00 21.6 5 Sudoeste 13 Sudoeste 0 1015.6 -0.3 74
2018-09-10 02:00:00 22 8 Sur 13 Sur 0 1015.7 0.4 72
2018-09-10 01:00:00 22.4 11 Sur 17 Sur 0 1015.7 1.3 68
2018-09-10 00:00:00 23.5 10 Sudeste 21 Sudeste 0 1015.9 2 69
2018-09-09 23:00:00 25.1 5 Oeste 13 Oeste 0 1015.3 2.2 62
2018-09-09 22:00:00 25.6 5 Sudoeste 28 Sudoeste 0 1014.4 2.7 61
2018-09-09 21:00:00 26.3 17 Sudoeste 33 Sur 0 1013.9 2.4 59
2018-09-09 20:00:00 27.4 20 Sur 41 Sur 0 1013.1 1.6 58
2018-09-09 19:00:00 30.4 19 Norte 32 Nordeste 0 1011.7 -0.4 36
2018-09-09 18:00:00 32.8 15 Este 26 Sudeste 0 1011.5 -1.6 28
2018-09-09 17:00:00 33.2 12 Nordeste 30 Este 0 1011.5 -2.3 27
2018-09-09 16:00:00 32.3 18 Nordeste 30 Este 0 1012.1 -2.5 30
2018-09-09 15:00:00 31 17 Este 35 Este 0 1013.1 -1.8 34
2018-09-09 14:00:00 29.7 17 Nordeste 30 Nordeste 0 1013.8 -1 38
2018-09-09 13:00:00 27.4 12 Nordeste 22 Nordeste 0 1014.6 -0.2 53
2018-09-09 12:00:00 25.5 15 Nordeste 24 Nordeste 0 1014.9 0.4 60
2018-09-09 11:00:00 24.6 12 Nordeste 22 Este 0 1014.8 0.6 64
2018-09-09 10:00:00 22.2 13 Nordeste 22 Nordeste 0 1014.8 0.9 77
2018-09-09 09:00:00 21 9 Nordeste 13 Nordeste 0 1014.5 0.9 82
2018-09-09 08:00:00 21.1 9 Este 21 Este 0 1014.2 0.4 82
2018-09-09 07:00:00 21.1 13 Este 21 Este 0 1013.9 -0.3 81
2018-09-09 06:00:00 20.8 10 Este 13 Este 0 1013.6 -0.5 83
2018-09-09 05:00:00 21.5 8 Nordeste 13 Este 0 1013.8 -0.4 82
2018-09-09 04:00:00 21.8 8 Este 11 Este 0 1014.2 0 80
2018-09-09 03:00:00 21.4 6 Norte 9 Norte 0 1014.1 0.2 82
2018-09-09 02:00:00 21.9 6 Norte 11 Noroeste 0 1014.2 0.4 82
2018-09-09 01:00:00 22.2 10 Noroeste 15 Oeste 0 1014.2 0.9 79
2018-09-09 00:00:00 23.1 6 Sur 9 Sur 0 1013.9 1.1 68
2018-09-08 23:00:00 23.9 0 Calma 11 Sudeste 0 1013.8 1.5 64
2018-09-08 22:00:00 24.9 10 Sudeste 18 Sudeste 0 1013.3 1.2 61
2018-09-08 21:00:00 25.4 11 Sudeste 15 Sudeste 0 1012.8 0.7 58
2018-09-08 20:00:00 26.3 8 Sur 21 Sudoeste 0 1012.3 0.3 48
2018-09-08 19:00:00 26.9 12 Sudoeste 21 Sudoeste 0 1012.1 -0.1 45
2018-09-08 18:00:00 27.1 12 Sudoeste 22 Sur 0 1012.1 -0.5 42
2018-09-08 17:00:00 26.8 13 Sur 24 Sur 0 1012 -0.8 45
2018-09-08 16:00:00 27.3 10 Sur 18 Sudoeste 0 1012.2 -0.8 41
2018-09-08 15:00:00 26.6 6 Oeste 15 Sudoeste 0 1012.6 -0.5 45
2018-09-08 14:00:00 26 8 Sur 15 Sudoeste 0 1012.8 0.3 45
2018-09-08 13:00:00 24.6 8 Sudoeste 17 Oeste 0 1013 0.9 50
2018-09-08 12:00:00 23.8 9 Sudoeste 17 Sudoeste 0 1013.1 1.7 58
2018-09-08 11:00:00 22.8 5 Sudoeste 11 Oeste 0 1012.5 1.1 62
2018-09-08 10:00:00 21.5 8 Oeste 11 Oeste 0 1012.1 1.4 69
2018-09-08 09:00:00 20.1 4 Sur 11 Sur 0 1011.4 0.8 76
2018-09-08 08:00:00 19.7 7 Sur 13 Sur 0 1011.4 0.4 78
2018-09-08 07:00:00 19.5 9 Sur 13 Sur 0 1010.7 -0.2 79
2018-09-08 06:00:00 19.4 9 Sur 15 Sur 0 1010.6 -0.3 80
2018-09-08 05:00:00 19.5 9 Sur 13 Sur 0 1011 0.3 80
2018-09-08 04:00:00 20.1 6 Sur 17 Sudoeste 0 1010.9 0.2 77
2018-09-08 03:00:00 20.4 10 Sur 15 Sudoeste 0 1010.9 0.3 74
2018-09-08 02:00:00 20.6 10 Sudoeste 17 Sudoeste 0 1010.7 0.6 71
2018-09-08 01:00:00 21 13 Sudoeste 24 Sudoeste 0 1010.7 1.6 70
2018-09-08 00:00:00 21.7 18 Sudoeste 26 Sudoeste 0 1010.6 2.6 65
2018-09-07 23:00:00 23 18 Sudoeste 24 Sudoeste 0 1010.1 2.4 60
2018-09-07 22:00:00 24.2 14 Sudoeste 26 Sudoeste 0 1009.1 1.5 56
2018-09-07 21:00:00 25.7 23 Sudoeste 30 Sudoeste 0 1008 0.3 48
2018-09-07 20:00:00 27.9 15 Sudoeste 24 Sudoeste 0 1007.7 -0.3 41
2018-09-07 19:00:00 30.2 12 Sudoeste 22 Sur 0 1007.6 -1.1 36
2018-09-07 18:00:00 30.1 13 Sudoeste 26 Sudoeste 0 1007.7 -1.5 36
2018-09-07 17:00:00 30.1 15 Sudoeste 32 Oeste 0 1008 -1.6 38
2018-09-07 16:00:00 29.2 14 Sudoeste 24 Sudoeste 0 1008.7 -1.6 40
2018-09-07 15:00:00 29 11 Sudoeste 22 Oeste 0 1009.2 -1.5 39
2018-09-07 14:00:00 27 5 Noroeste 24 Sur 0 1009.6 -1.3 48
2018-09-07 13:00:00 25.7 8 Sudeste 24 Sudeste 0 1010.3 0 54
2018-09-07 12:00:00 24.3 9 Sudeste 22 Sur 0 1010.7 0.3 57
2018-09-07 11:00:00 23.3 8 Sur 18 Sur 0 1010.9 1 62
2018-09-07 10:00:00 21.5 12 Sudeste 15 Sudeste 0 1010.3 0.4 69
2018-09-07 09:00:00 18.7 9 Sur 13 Sur 0 1010.4 0.4 83
2018-09-07 08:00:00 18 5 Sudeste 9 Este 0 1009.9 0 85
2018-09-07 07:00:00 19.5 5 Sur 15 Sur 0 1009.9 -0.2 82
2018-09-07 06:00:00 19.4 9 Sur 15 Sur 0 1010 -0.6 84
2018-09-07 05:00:00 18.7 10 Sur 13 Sur 0 1009.9 -0.9 90
2018-09-07 04:00:00 19.9 5 Sur 11 Sudoeste 0 1010.1 -0.8 86
2018-09-07 03:00:00 20.5 9 Sudoeste 17 Sudoeste 0 1010.6 -0.4 83
2018-09-07 02:00:00 20.6 14 Oeste 21 Oeste 0 1010.8 -0.2 84
2018-09-07 01:00:00 20.9 13 Sudoeste 21 Sudoeste 0 1010.9 0.4 84
2018-09-07 00:00:00 21.2 13 Sudoeste 26 Sudoeste 0 1011 1.4 82
2018-09-06 23:00:00 21.7 21 Sudoeste 30 Sudoeste 0 1011 1.9 79
2018-09-06 22:00:00 23 17 Sudoeste 30 Sudoeste 0 1010.5 1.5 71
2018-09-06 21:00:00 24.8 19 Sudoeste 35 Sudoeste 0 1009.6 0.8 60
2018-09-06 20:00:00 26.9 24 Sudoeste 37 Sudoeste 0 1009.1 -0.3 50
2018-09-06 19:00:00 28.4 26 Sudoeste 37 Sudoeste 0 1009 -1.1 43
2018-09-06 18:00:00 30.4 21 Sudoeste 30 Sudoeste 0 1008.8 -1.8 39
2018-09-06 17:00:00 31.4 13 Oeste 33 Noroeste 0 1009.4 -1.6 29
2018-09-06 16:00:00 31 8 Sudoeste 24 Oeste 0 1010.1 -1.4 35
2018-09-06 15:00:00 29.9 10 Oeste 21 Oeste 0 1010.6 -1.4 37
2018-09-06 14:00:00 28.2 9 Sudoeste 21 Sudoeste 0 1011 -0.9 47
2018-09-06 13:00:00 27.6 5 Sur 18 Sur 0 1011.5 -0.1 51
2018-09-06 12:00:00 25.6 9 Sudoeste 15 Sur 0 1012 0.6 61
2018-09-06 11:00:00 24 4 Sudoeste 11 Sudoeste 0 1011.9 0.9 68
2018-09-06 10:00:00 21.9 3 Nordeste 9 Nordeste 0 1011.6 0.8 76
2018-09-06 09:00:00 19.6 0 Calma -- -- 0 1011.4 0.8 85
2018-09-06 08:00:00 17.9 0 Calma 5 Sudeste 0 1011 0.4 89
2018-09-06 07:00:00 18 3 Sudeste 9 Sur 0 1010.8 -0.1 88
2018-09-06 06:00:00 19 6 Sur 11 Sudoeste 0 1010.6 -0.8 88
2018-09-06 05:00:00 19.1 4 Sur 9 Sur 0 1010.6 -1.2 85
2018-09-06 04:00:00 19.6 4 Sur 13 Sur 0 1010.9 -0.9 84
2018-09-06 03:00:00 20.1 9 Sur 13 Sur 0 1011.4 -0.5 83
2018-09-06 02:00:00 20.5 10 Sur 17 Sur 0 1011.8 0.2 82
2018-09-06 01:00:00 21.2 9 Sur 18 Sudoeste 0 1011.8 0.6 79
2018-09-06 00:00:00 22.2 13 Sudoeste 24 Oeste 0 1011.9 1.6 73
2018-09-05 23:00:00 22.4 15 Sudoeste 26 Sudoeste 0 1011.6 1.6 71
2018-09-05 22:00:00 23.4 20 Sudoeste 30 Sudoeste 0 1011.2 1.1 65
2018-09-05 21:00:00 24.7 22 Sudoeste 37 Sudoeste 0 1010.3 -0.1 57
2018-09-05 20:00:00 26.3 28 Sudoeste 39 Sudoeste 0 1010 -0.8 51
2018-09-05 19:00:00 27.9 23 Sudoeste 33 Sudoeste 0 1010.1 -0.9 46
2018-09-05 18:00:00 29 18 Sudoeste 32 Oeste 0 1010.4 -1.2 41
2018-09-05 17:00:00 29.6 19 Sudoeste 37 Sudoeste 0 1010.8 -1.5 40
2018-09-05 16:00:00 29 15 Sudoeste 28 Oeste 0 1011 -2 42
2018-09-05 15:00:00 28.7 14 Sudoeste 30 Sudoeste 0 1011.6 -1.7 43
2018-09-05 14:00:00 28.5 10 Sudoeste 21 Sudoeste 0 1012.3 -0.8 45
2018-09-05 13:00:00 26 4 Sur 15 Oeste 0 1013 0.3 54
2018-09-05 12:00:00 24.4 3 Noroeste 11 Oeste 0 1013.3 1 62
2018-09-05 11:00:00 23.4 5 Sudoeste 15 Sudoeste 0 1013.1 1.2 70
2018-09-05 10:00:00 22.4 10 Sudoeste 15 Sudoeste 0 1012.7 1.1 75
2018-09-05 09:00:00 20.9 8 Sur 13 Sur 0 1012.3 0.9 78
2018-09-05 08:00:00 20.3 8 Sur 11 Sur 0 1011.9 0.6 79
2018-09-05 07:00:00 20.4 7 Sur 11 Sur 0 1011.6 0.5 79
2018-09-05 06:00:00 20.1 3 Sur 11 Sur 0 1011.4 0.1 80
2018-09-05 05:00:00 19.8 10 Sur 13 Sur 0 1011.3 -0.1 81
2018-09-05 04:00:00 18.9 7 Sur 9 Sur 0 1011.1 -0.1 85
2018-09-05 03:00:00 19.8 5 Sur 11 Sudoeste 0 1011.3 0.2 79
2018-09-05 02:00:00 20.8 4 Sur 15 Sudoeste 0 1011.4 0.7 75
2018-09-05 01:00:00 21.7 11 Sudoeste 21 Oeste 0 1011.2 1.1 71
2018-09-05 00:00:00 22.2 14 Oeste 30 Sudoeste 0 1011.1 2 67
2018-09-04 23:00:00 22.7 15 Sudoeste 30 Sudoeste 0 1010.7 2 66
2018-09-04 22:00:00 23.5 16 Sudoeste 32 Sudoeste 0 1010.1 1.6 63
2018-09-04 21:00:00 24.4 20 Sudoeste 37 Sudoeste 0 1009.1 0.7 59
2018-09-04 20:00:00 26.2 24 Sudoeste 35 Sudoeste 0 1008.7 0.1 51
2018-09-04 19:00:00 27.7 26 Sudoeste 37 Sudoeste 0 1008.5 -0.6 43
2018-09-04 18:00:00 28.7 24 Sudoeste 35 Sudoeste 0 1008.4 -1.2 38
2018-09-04 17:00:00 29.1 15 Sudoeste 30 Sudoeste 0 1008.6 -1.4 37
2018-09-04 16:00:00 28.7 14 Sudoeste 32 Sudoeste 0 1009.1 -1.5 41
2018-09-04 15:00:00 27.9 14 Sudoeste 24 Sudoeste 0 1009.6 -1 43
2018-09-04 14:00:00 27.4 13 Sudoeste 28 Sudoeste 0 1010 -0.5 44
2018-09-04 13:00:00 26.4 12 Sudoeste 22 Sudoeste 0 1010.6 0.4 46
2018-09-04 12:00:00 24.9 11 Sur 21 Sudoeste 0 1010.6 0.6 52
2018-09-04 11:00:00 24.2 9 Sur 18 Sudoeste 0 1010.5 0.9 55
2018-09-04 10:00:00 22.4 3 Sur 9 Sudeste 0 1010.2 0.8 69
2018-09-04 09:00:00 20.4 5 Sudeste 8 Sudeste 0 1010 0.6 78
2018-09-04 08:00:00 18.1 2 Nordeste 9 Nordeste 0 1009.6 0 84
2018-09-04 07:00:00 19.1 0 Calma 5 Sudeste 0 1009.4 -0.4 82
2018-09-04 06:00:00 19.9 3 Sur 9 Sudoeste 0 1009.4 -0.6 78
2018-09-04 05:00:00 20.5 8 Sudoeste 13 Sudoeste 0 1009.6 -0.5 77
2018-09-04 04:00:00 20.5 8 Sudoeste 17 Sudoeste 0 1009.8 -0.4 76
2018-09-04 03:00:00 20.7 11 Sudoeste 18 Sudoeste 0 1010 -0.1 76
2018-09-04 02:00:00 20.7 13 Sudoeste 17 Sudoeste 0 1010.1 0.2 77
2018-09-04 01:00:00 21.1 11 Sudoeste 21 Sudoeste 0 1010.2 0.9 75
2018-09-04 00:00:00 21.5 14 Sudoeste 28 Oeste 0 1010.1 1.7 72
2018-09-03 23:00:00 22.1 18 Sudoeste 28 Sudoeste 0 1009.9 1.8 70
2018-09-03 22:00:00 22.7 19 Sudoeste 30 Sudoeste 0 1009.3 1.1 68
2018-09-03 21:00:00 23.3 23 Sudoeste 32 Sudoeste 0 1008.4 0 65
2018-09-03 20:00:00 24.8 23 Sudoeste 37 Sudoeste 0 1008.1 -0.4 56
2018-09-03 19:00:00 26.4 26 Sudoeste 41 Sudoeste 0 1008.2 -0.5 52
2018-09-03 18:00:00 27.6 27 Sudoeste 42 Sudoeste 0 1008.4 -0.6 46
2018-09-03 17:00:00 28.6 27 Sudoeste 41 Sudoeste 0 1008.5 -0.7 44
2018-09-03 16:00:00 28.8 21 Sudoeste 37 Sudoeste 0 1008.7 -1 45
2018-09-03 15:00:00 28.7 18 Sudoeste 37 Sudoeste 0 1009 -0.9 45
2018-09-03 14:00:00 28.2 18 Sudoeste 32 Sudoeste 0 1009.2 -0.8 48
2018-09-03 13:00:00 27.6 15 Sudoeste 30 Sudoeste 0 1009.7 -0.1 50
2018-09-03 12:00:00 26.4 14 Sudoeste 24 Sudoeste 0 1009.9 0.3 56
2018-09-03 11:00:00 25.4 8 Sur 15 Sur 0 1010 0.6 62
2018-09-03 10:00:00 23.4 8 Sur 13 Sudoeste 0 1009.8 0.5 71
2018-09-03 09:00:00 22.8 4 Sur 13 Sudoeste 0 1009.6 0.4 77
2018-09-03 08:00:00 22.2 9 Sudoeste 18 Sudoeste 0 1009.4 -0.3 79
2018-09-03 07:00:00 22.8 10 Sudoeste 22 Sudoeste 0 1009.3 -0.5 75
2018-09-03 06:00:00 23.3 14 Sudoeste 32 Sudoeste 0 1009.2 -0.6 76
2018-09-03 05:00:00 23.3 21 Sudoeste 32 Sudoeste 0 1009.7 -0.2 76
2018-09-03 04:00:00 23.5 21 Sudoeste 39 Oeste 0 1009.8 0.2 81
2018-09-03 03:00:00 23.9 26 Sudoeste 46 Sudoeste 0 1009.8 0.4 83
2018-09-03 02:00:00 24 23 Sudoeste 35 Sudoeste 0 1009.9 0.9 83
2018-09-03 01:00:00 24.8 12 Sudoeste 28 Sudoeste 0 1009.6 1.6 77
2018-09-03 00:00:00 25.6 16 Oeste 28 Oeste 0 1009.4 2.1 72
2018-09-02 23:00:00 26.8 16 Sudoeste 30 Oeste 0 1009 2.3 65
2018-09-02 22:00:00 28.9 20 Oeste 33 Oeste 0 1008 1.4 56
2018-09-02 21:00:00 31.2 23 Oeste 32 Oeste 0 1007.3 0.4 49
2018-09-02 20:00:00 34.7 20 Oeste 33 Oeste 0 1006.7 -0.8 35
2018-09-02 19:00:00 36.7 21 Sudoeste 37 Sudoeste 0 1006.6 -1.5 28
2018-09-02 18:00:00 37.6 19 Sudoeste 30 Sudoeste 0 1006.9 -1.7 27
2018-09-02 17:00:00 37.5 14 Sudoeste 28 Sudoeste 0 1007.5 -1.6 27
2018-09-02 16:00:00 37.9 15 Sudoeste 26 Sudoeste 0 1008.1 -1.5 24
2018-09-02 15:00:00 37.9 14 Oeste 24 Oeste 0 1008.6 -1.7 22
2018-09-02 14:00:00 37.7 10 Sur 22 Sudoeste 0 1009.1 -1.4 19
2018-09-02 13:00:00 35.5 9 Este 21 Nordeste 0 1009.6 -0.7 23
2018-09-02 12:00:00 32.3 11 Nordeste 18 Este 0 1010.3 0 34
2018-09-02 11:00:00 29.5 9 Nordeste 15 Nordeste 0 1010.5 0.6 43
2018-09-02 10:00:00 26.5 12 Nordeste 17 Nordeste 0 1010.3 0.3 52
2018-09-02 09:00:00 24.2 9 Nordeste 15 Este 0 1010.3 0.3 60
2018-09-02 08:00:00 22.9 5 Nordeste 13 Norte 0 1009.9 0.1 60
2018-09-02 07:00:00 23.3 4 Norte 9 Norte 0 1010 0.9 59
2018-09-02 06:00:00 23.9 2 Norte 15 Norte 0 1010 0.5 64
2018-09-02 05:00:00 24.6 6 Sudoeste 13 Nordeste 0 1009.8 0.1 65
2018-09-02 04:00:00 24.7 10 Nordeste 15 Nordeste 0 1009.1 -0.7 64
2018-09-02 03:00:00 25.7 6 Sudeste 8 Sudeste 0 1009.5 -0.3 61
2018-09-02 02:00:00 26.4 5 Sur 9 Sudoeste 0 1009.7 0.2 59
2018-09-02 01:00:00 28.3 7 Sur 15 Sur 0 1009.8 1.1 51
2018-09-02 00:00:00 29.5 10 Sur 17 Sudoeste 0 1009.8 1.5 48
2018-09-01 23:00:00 30.9 12 Sudoeste 24 Sudoeste 0 1009.5 1.4 44
2018-09-01 22:00:00 32.6 12 Sur 18 Sudoeste 0 1008.7 0.6 36
2018-09-01 21:00:00 33.8 9 Sudoeste 18 Sudoeste 0 1008.3 0.1 34
2018-09-01 20:00:00 35.3 14 Sudoeste 22 Sudoeste 0 1008.1 -0.3 31
2018-09-01 19:00:00 36.9 13 Sudoeste 24 Sudoeste 0 1008.1 -0.9 28
2018-09-01 18:00:00 37.6 15 Sudoeste 26 Sudoeste 0 1008.2 -0.9 27
2018-09-01 17:00:00 38.3 11 Sur 28 Sudoeste 0 1008.4 -1.2 22
2018-09-01 16:00:00 37.9 18 Sudoeste 32 Sudoeste 0 1009 -1.4 21
2018-09-01 15:00:00 38.8 11 Este 30 Sudeste 0 1009.1 -1.7 17
2018-09-01 14:00:00 37.5 18 Este 35 Este 0 1009.6 -1.3 19
2018-09-01 13:00:00 35.9 17 Este 32 Este 0 1010.4 -0.4 22
2018-09-01 12:00:00 33.7 13 Sudeste 21 Sudeste 0 1010.8 0.1 28
2018-09-01 11:00:00 29.9 3 Nordeste 13 Nordeste 0 1010.9 0.6 44
2018-09-01 10:00:00 26.5 9 Nordeste 17 Nordeste 0 1010.8 0.9 52
2018-09-01 09:00:00 23.5 6 Nordeste 13 Nordeste 0 1010.7 0.9 61
2018-09-01 08:00:00 21.9 6 Norte 11 Norte 0 1010.3 0.2 67
2018-09-01 07:00:00 22.5 5 Nordeste 13 Norte 0 1009.9 -0.2 68
2018-09-01 06:00:00 22.7 0 Calma 9 Nordeste 0 1009.8 -0.4 69
2018-09-01 05:00:00 23 0 Calma 11 Sudeste 0 1010.1 -0.2 67
2018-09-01 04:00:00 23.5 9 Sudeste 11 Sudeste 0 1010.1 -0.2 67
2018-09-01 03:00:00 24.6 8 Sur 9 Sur 0 1010.2 0 63
2018-09-01 02:00:00 25.4 7 Oeste 11 Oeste 0 1010.3 0.2 60
2018-09-01 01:00:00 26.7 2 Este 9 Sudoeste 0 1010.3 1.1 55
2018-09-01 00:00:00 28.5 7 Sudoeste 13 Sudoeste 0 1010.2 1.9 49
2018-08-31 23:00:00 29.9 8 Sudoeste 24 Sudoeste 0 1010.1 2.3 44
2018-08-31 22:00:00 31.1 21 Sudoeste 30 Sudoeste 0 1009.2 1.3 40
2018-08-31 21:00:00 34.1 14 Sur 22 Sudoeste 0 1008.3 0.2 30
2018-08-31 20:00:00 37.2 14 Este 33 Este 0 1007.8 -0.7 19
2018-08-31 19:00:00 38.3 17 Este 30 Este 0 1007.9 -1.4 19
2018-08-31 18:00:00 38.7 16 Este 32 Sudeste 0 1008.1 -1.9 19
2018-08-31 17:00:00 38.8 18 Sudeste 35 Este 0 1008.5 -2.1 19
2018-08-31 16:00:00 38.5 17 Sudeste 32 Este 0 1009.3 -1.8 20
2018-08-31 15:00:00 37.1 17 Este 35 Este 0 1010 -1.6 22
2018-08-31 14:00:00 35.9 23 Este 42 Este 0 1010.6 -0.9 24
2018-08-31 13:00:00 34.7 22 Este 33 Este 0 1011.1 -0.6 28
2018-08-31 12:00:00 32.6 16 Este 30 Este 0 1011.6 0 38
2018-08-31 11:00:00 30.2 16 Este 24 Nordeste 0 1011.5 0.2 45
2018-08-31 10:00:00 26.1 12 Nordeste 17 Nordeste 0 1011.7 0.5 57
2018-08-31 09:00:00 22.9 11 Nordeste 15 Nordeste 0 1011.6 0.4 67
2018-08-31 08:00:00 21.5 7 Nordeste 15 Nordeste 0 1011.3 -0.1 77
2018-08-31 07:00:00 23.2 3 Nordeste 11 Nordeste 0 1011.2 -0.5 71
2018-08-31 06:00:00 22.8 4 Este 9 Este 0 1011.2 -0.8 74
2018-08-31 05:00:00 22.8 6 Este 9 Este 0 1011.4 -0.3 75
2018-08-31 04:00:00 24 7 Sudoeste 21 Sudoeste 0 1011.7 0.2 72
2018-08-31 03:00:00 24.5 15 Sudoeste 22 Sudoeste 0 1012 0.6 70
2018-08-31 02:00:00 25.4 14 Sudoeste 22 Sudoeste 0 1011.7 0.5 63
2018-08-31 01:00:00 25.8 14 Sur 21 Sur 0 1011.5 0.9 59
2018-08-31 00:00:00 27.5 3 Sur 11 Oeste 0 1011.4 1.2 47
2018-08-30 23:00:00 28.5 10 Oeste 17 Oeste 0 1011.2 1.2 43
2018-08-30 22:00:00 31.2 11 Sudoeste 17 Sudoeste 0 1010.6 0.3 34
2018-08-30 21:00:00 32.8 6 Noroeste 13 Noroeste 0 1010.2 -0.4 24
2018-08-30 20:00:00 35.3 5 Norte 22 Norte 0 1010 -1.2 23
2018-08-30 19:00:00 35.5 12 Noroeste 26 Noroeste 0 1010.3 -1.7 24
2018-08-30 18:00:00 35.3 5 Norte 18 Noroeste 0 1010.6 -1.9 26
2018-08-30 17:00:00 35.4 7 Oeste 21 Oeste 0 1011.2 -1.8 27
2018-08-30 16:00:00 34 7 Noroeste 26 Sudoeste 0 1012 -1.5 31
2018-08-30 15:00:00 32.9 8 Noroeste 18 Oeste 0 1012.5 -1.5 34
2018-08-30 14:00:00 31.5 9 Oeste 15 Sudoeste 0 1013 -1 39
2018-08-30 13:00:00 29.6 4 Este 13 Noroeste 0 1013.5 -0.2 45
2018-08-30 12:00:00 27 2 Norte 11 Nordeste 0 1014 0.5 58
2018-08-30 11:00:00 25.4 4 Sudeste 11 Sudoeste 0 1014 1.1 65
2018-08-30 10:00:00 23.4 6 Oeste 13 Sur 0 1013.7 1.2 74
2018-08-30 09:00:00 20.5 4 Sudeste 5 Sudeste 0 1013.5 1 87
2018-08-30 08:00:00 18.8 3 Sudeste 5 Sudeste 0 1012.9 0.3 91
2018-08-30 07:00:00 19.1 4 Sur 9 Sudeste 0 1012.5 -0.4 92
2018-08-30 06:00:00 19.7 6 Sudeste 8 Sur 0 1012.5 -0.6 89
2018-08-30 05:00:00 20.3 5 Sur 13 Sur 0 1012.6 -0.3 88
2018-08-30 04:00:00 20.3 9 Sur 11 Sur 0 1012.9 0.1 89
2018-08-30 03:00:00 21.4 5 Sur 13 Sur 0 1013.1 0.4 85
2018-08-30 02:00:00 21.9 10 Sudoeste 21 Sur 0 1012.9 0.3 83
2018-08-30 01:00:00 22.1 11 Sudoeste 26 Sudoeste 0 1012.8 0.9 80
2018-08-30 00:00:00 22.6 17 Sudoeste 28 Sudoeste 0 1012.7 1.5 79
2018-08-29 23:00:00 24 19 Sudoeste 26 Sudoeste 0 1012.6 1.7 73
2018-08-29 22:00:00 26.4 15 Sudoeste 24 Sur 0 1011.9 1 58
2018-08-29 21:00:00 29.1 15 Sudoeste 30 Sudoeste 0 1011.2 0.2 42
2018-08-29 20:00:00 30.6 22 Sudoeste 33 Sudoeste 0 1010.9 -0.5 39
2018-08-29 19:00:00 32.6 26 Sudoeste 33 Sudoeste 0 1010.9 -1.1 34
2018-08-29 18:00:00 34.5 12 Sudoeste 22 Sudoeste 0 1011 -1.7 20
2018-08-29 17:00:00 34.3 11 Sudoeste 21 Sudoeste 0 1011.4 -1.8 19
2018-08-29 16:00:00 33 7 Sudoeste 18 Sudoeste 0 1012 -1.7 29
2018-08-29 15:00:00 30.9 9 Sudoeste 21 Oeste 0 1012.7 -1.4 41
2018-08-29 14:00:00 29.4 10 Sudoeste 21 Sudoeste 0 1013.2 -0.8 48
2018-08-29 13:00:00 27.2 9 Sudoeste 21 Oeste 0 1013.7 -0.2 56
2018-08-29 12:00:00 25 9 Sudoeste 18 Sudoeste 0 1014.1 0.6 68
2018-08-29 11:00:00 22.9 6 Sur 15 Sudoeste 0 1014 0.7 77
2018-08-29 10:00:00 22.4 8 Sudoeste 13 Sudoeste 0 1013.9 0.9 79
2018-08-29 09:00:00 21.7 8 Sudoeste 11 Sudoeste 0 1013.5 0.7 86
2018-08-29 08:00:00 21.3 4 Sudoeste 15 Oeste 0 1013.3 0.5 89
2018-08-29 07:00:00 21.2 10 Sudoeste 17 Sudoeste 0 1013 0.3 90
2018-08-29 06:00:00 21.2 11 Sudoeste 18 Sudoeste 0 1012.8 -0.1 92
2018-08-29 05:00:00 21.1 10 Sudoeste 22 Sudoeste 0 1012.8 0.1 92
2018-08-29 04:00:00 21.2 11 Sudoeste 22 Sudoeste 0 1012.7 0.4 89
2018-08-29 03:00:00 21.7 16 Sudoeste 22 Sudoeste 0 1012.9 0.9 86
2018-08-29 02:00:00 22.3 13 Sudoeste 30 Sudoeste 0 1012.7 1.2 85
2018-08-29 01:00:00 22.6 18 Sudoeste 33 Sudoeste 0 1012.3 1.6 87
2018-08-29 00:00:00 23.2 23 Sudoeste 33 Sudoeste 0 1012 2 78
2018-08-28 23:00:00 25.5 19 Sudoeste 26 Sudoeste 0 1011.5 2.2 57
2018-08-28 22:00:00 28 18 Sudoeste 24 Sur 0 1010.7 1.4 47
2018-08-28 21:00:00 29.9 16 Sudoeste 32 Oeste 0 1010 0.7 49
2018-08-28 20:00:00 33.5 21 Oeste 32 Oeste 0 1009.3 -0.5 29
2018-08-28 19:00:00 35.2 22 Oeste 33 Oeste 0 1009.3 -1.3 24
2018-08-28 18:00:00 35.6 19 Sudoeste 28 Sudoeste 0 1009.3 -1.8 30
2018-08-28 17:00:00 35.9 15 Sudoeste 26 Sudoeste 0 1009.8 -1.8 22
2018-08-28 16:00:00 34.7 14 Sudoeste 26 Sudoeste 0 1010.6 -1.4 31
2018-08-28 15:00:00 34.5 14 Sudoeste 24 Sur 0 1011.1 -1.2 33
2018-08-28 14:00:00 32.8 14 Sudoeste 22 Sudoeste 0 1011.6 -0.5 38
2018-08-28 13:00:00 30.8 5 Sur 13 Sudoeste 0 1012 0 48
2018-08-28 12:00:00 28.9 6 Norte 11 Nordeste 0 1012.3 0.4 58
2018-08-28 11:00:00 26.2 5 Nordeste 17 Norte 0 1012.1 0.7 68
2018-08-28 10:00:00 25.2 5 Nordeste 9 Nordeste 0 1012 1.2 75
2018-08-28 09:00:00 22.8 7 Sur 11 Sudoeste 0 1011.9 1 87
2018-08-28 08:00:00 21.9 6 Sur 9 Sudoeste 0 1011.4 0.6 89
2018-08-28 07:00:00 22.4 7 Sudoeste 13 Sudoeste 0 1010.8 -0.3 86
2018-08-28 06:00:00 22.9 8 Sudoeste 24 Sudoeste 0 1010.9 -0.4 86
2018-08-28 05:00:00 23.6 16 Sudoeste 28 Sudoeste 0 1010.8 -0.8 82
2018-08-28 04:00:00 23.8 19 Sudoeste 35 Sudoeste 0 1011.1 0 83
2018-08-28 03:00:00 23.9 22 Sudoeste 32 Sudoeste 0 1011.3 0.7 85
2018-08-28 02:00:00 24.7 20 Sudoeste 33 Oeste 0 1011.6 2.1 79
2018-08-28 01:00:00 26.1 18 Sudoeste 28 Oeste 0 1011.1 3 63
2018-08-28 00:00:00 27.1 15 Oeste 32 Sudoeste 0 1010.6 4.1 59
2018-08-27 23:00:00 28.8 23 Oeste 33 Oeste 0 1009.5 3.2 52
2018-08-27 22:00:00 31.1 18 Sudoeste 30 Oeste 0 1008.1 1.7 45
2018-08-27 21:00:00 32.9 16 Sudoeste 32 Sudoeste 0 1006.5 1.9 37
2018-08-27 20:00:00 34.6 20 Sudoeste 33 Sudoeste 0 1006.3 -0.4 33
2018-08-27 19:00:00 36 27 Sudoeste 46 Oeste 0 1006.4 -1 31
2018-08-27 18:00:00 39 17 Este 26 Este 0 1004.6 -1 19
2018-08-27 17:00:00 37.2 15 Este 30 Nordeste 0 1006.7 -0.5 20
2018-08-27 16:00:00 36.3 13 Oeste 45 Este 0 1007.4 -2.1 26
2018-08-27 15:00:00 36.2 29 Este 39 Este 0 1005.6 -2.7 24
2018-08-27 14:00:00 33 26 Este 42 Nordeste 0 1007.2 0 34
2018-08-27 13:00:00 29.9 21 Noroeste 46 Oeste 0 1009.5 0.9 38
2018-08-27 12:00:00 30.6 16 Norte 24 Nordeste 0 1008.3 0.9 36
2018-08-27 11:00:00 30.5 18 Nordeste 28 Este 0 1007.2 -1.1 35
2018-08-27 10:00:00 28 10 Nordeste 26 Este 0 1008.6 2 40
2018-08-27 09:00:00 24.4 21 Nordeste 28 Norte 0 1007.4 0.8 52
2018-08-27 08:00:00 21.7 8 Noroeste 13 Noroeste 0 1008.3 1.2 58
2018-08-27 07:00:00 22.6 6 Nordeste 13 Nordeste 0 1006.6 -0.7 56
2018-08-27 06:00:00 21.8 7 Nordeste 9 Nordeste 0 1006.6 -1.1 61
2018-08-27 05:00:00 22.5 8 Norte 11 Norte 0 1007.1 -0.8 58
2018-08-27 04:00:00 23 4 Este 9 Sur 0 1007.3 -0.8 58
2018-08-27 03:00:00 24.8 7 Sudeste 11 Sur 0 1007.7 -0.6 52
2018-08-27 02:00:00 24.5 8 Sur 9 Sur 0 1007.9 -0.5 50
2018-08-27 01:00:00 25.2 3 Sudeste 5 Sudeste 0 1008.1 0.3 47
2018-08-27 00:00:00 28.8 4 Oeste 11 Oeste 0 1008.3 1 34
2018-08-26 23:00:00 30.5 6 Oeste 11 Sudoeste 0 1008.4 1.3 31
2018-08-26 22:00:00 32.1 10 Sudoeste 21 Sudoeste 0 1007.8 0.5 31
2018-08-26 21:00:00 33.9 16 Sudoeste 26 Sudoeste 0 1007.3 0 28
2018-08-26 20:00:00 36.7 15 Sudoeste 21 Sudoeste 0 1007.1 -0.6 24
2018-08-26 19:00:00 38.2 13 Sudoeste 22 Sudoeste 0 1007.3 -1 17
2018-08-26 18:00:00 38.5 12 Sudoeste 24 Sudoeste 0 1007.3 -1.6 15
2018-08-26 17:00:00 38.1 15 Sudoeste 30 Sudoeste 0 1007.7 -1.6 15
2018-08-26 16:00:00 37 13 Sudoeste 26 Sudoeste 0 1008.3 -1.2 21
2018-08-26 15:00:00 36.2 15 Sudoeste 28 Sudoeste 0 1008.9 -0.7 20
2018-08-26 14:00:00 35.3 8 Sudoeste 24 Sudoeste 0 1009.3 -0.2 26
2018-08-26 13:00:00 34 6 Sur 17 Sur 0 1009.5 0 28
2018-08-26 12:00:00 31.4 3 Sudeste 13 Nordeste 0 1009.6 0.9 35
2018-08-26 11:00:00 28.4 0 Calma 9 Nordeste 0 1009.5 0.8 47
2018-08-26 10:00:00 25.4 3 Sur 11 Norte 0 1009.5 1.5 60
2018-08-26 09:00:00 21.8 8 Norte 17 Norte 0 1008.7 0.8 74
2018-08-26 08:00:00 19.1 8 Sur 11 Sur 0 1008.7 0.8 83
2018-08-26 07:00:00 19.4 5 Sudeste 8 Este 0 1008 -0.1 78
2018-08-26 06:00:00 19.8 7 Sudeste 11 Sudeste 0 1007.9 -0.4 79
2018-08-26 05:00:00 20.8 5 Sudeste 8 Sur 0 1007.9 -0.6 78
2018-08-26 04:00:00 22.2 3 Sur 9 Sur 0 1008.1 -0.1 76
2018-08-26 03:00:00 22.9 3 Sudoeste 13 Sur 0 1008.3 0.2 75
2018-08-26 02:00:00 23.9 5 Sur 15 Sudoeste 0 1008.5 0.6 71
2018-08-26 01:00:00 24.9 11 Sudoeste 22 Sur 0 1008.2 1.1 68
2018-08-26 00:00:00 26.1 13 Sur 21 Sur 0 1008.1 1.6 65
2018-08-25 23:00:00 27.8 12 Sur 21 Sudoeste 0 1007.9 1.5 60
2018-08-25 22:00:00 29.8 14 Sudoeste 21 Sudoeste 0 1007.1 0.7 50
2018-08-25 21:00:00 32.2 14 Sudoeste 28 Sudoeste 0 1006.5 -0.2 38
2018-08-25 20:00:00 34.4 22 Sudoeste 35 Sudoeste 0 1006.4 -0.8 28
2018-08-25 19:00:00 35.6 24 Sudoeste 33 Sudoeste 0 1006.4 -1.5 23
2018-08-25 18:00:00 36.9 20 Sudoeste 32 Sudoeste 0 1006.7 -1.8 22
2018-08-25 17:00:00 36.7 22 Sudoeste 30 Sudoeste 0 1007.2 -2 26
2018-08-25 16:00:00 36.9 15 Sudoeste 26 Sudoeste 0 1007.9 -2 27
2018-08-25 15:00:00 35.7 14 Sudoeste 26 Sudoeste 0 1008.5 -2 30
2018-08-25 14:00:00 34.6 15 Sudoeste 24 Sudoeste 0 1009.2 -1.3 27
2018-08-25 13:00:00 33.5 10 Sudoeste 18 Sudoeste 0 1009.9 -0.3 28
2018-08-25 12:00:00 31.5 6 Oeste 13 Oeste 0 1010.5 0.5 37
2018-08-25 11:00:00 28.7 5 Noroeste 9 Oeste 0 1010.5 0.8 49
2018-08-25 10:00:00 26.6 0 Calma 5 Noroeste 0 1010.2 0.8 55
2018-08-25 09:00:00 23.4 2 Sudeste 4 Sudeste 0 1010 0.6 65
2018-08-25 08:00:00 21.6 0 Calma -- -- 0 1009.7 0.1 71
2018-08-25 07:00:00 22.2 5 Sudeste 17 Sudoeste 0 1009.4 -0.2 72
2018-08-25 06:00:00 23.7 13 Sudoeste 18 Sudoeste 0 1009.4 -0.5 65
2018-08-25 05:00:00 23.5 0 Calma 15 Sudoeste 0 1009.6 -0.8 63
2018-08-25 04:00:00 24 0 Calma 13 Sudoeste 0 1009.6 -0.8 62
2018-08-25 03:00:00 24.9 4 Sur 18 Sur 0 1009.9 -0.6 59
2018-08-25 02:00:00 25.5 17 Sur 24 Sur 0 1010.4 -0.1 59
2018-08-25 01:00:00 26.7 15 Sur 21 Sur 0 1010.4 0.4 52
2018-08-25 00:00:00 28.7 11 Sur 15 Sur 0 1010.5 1.1 42
2018-08-24 23:00:00 29.7 9 Sudoeste 18 Sudoeste 0 1010.5 1.3 42
2018-08-24 22:00:00 31.4 13 Sudoeste 28 Sudoeste 0 1010 0.6 38
2018-08-24 21:00:00 34 19 Sudoeste 30 Sudoeste 0 1009.4 -0.2 28
2018-08-24 20:00:00 36.2 25 Sudoeste 32 Sudoeste 0 1009.2 -0.9 21
2018-08-24 19:00:00 37.6 19 Sudoeste 28 Sudoeste 0 1009.4 -1.6 20
2018-08-24 18:00:00 38.2 18 Sudoeste 28 Sudoeste 0 1009.6 -2.2 20
2018-08-24 17:00:00 38.9 12 Sudoeste 21 Sudoeste 0 1010.1 -2.2 19
2018-08-24 16:00:00 37.8 14 Sudoeste 30 Oeste 0 1011 -1.8 18
2018-08-24 15:00:00 36.8 15 Sudoeste 28 Sudoeste 0 1011.8 -1.3 21
2018-08-24 14:00:00 35.9 12 Sudoeste 18 Oeste 0 1012.3 -1 23
2018-08-24 13:00:00 33.9 7 Oeste 17 Oeste 0 1012.8 -0.3 29
2018-08-24 12:00:00 31.4 3 Sudoeste 13 Noroeste 0 1013.1 0.4 34
2018-08-24 11:00:00 29.4 3 Nordeste 8 Este 0 1013.3 1 44
2018-08-24 10:00:00 27.3 3 Este 8 Este 0 1013.1 1 47
2018-08-24 09:00:00 23.8 0 Calma 5 Este 0 1012.7 0.9 55
2018-08-24 08:00:00 21.4 0 Calma 9 Este 0 1012.3 0.5 66
2018-08-24 07:00:00 21.4 4 Sudeste 11 Este 0 1012.1 0.1 62
2018-08-24 06:00:00 22.9 3 Sur 13 Sudoeste 0 1011.8 -0.4 61
2018-08-24 05:00:00 24 11 Sudoeste 15 Sudoeste 0 1011.8 -0.5 57
2018-08-24 04:00:00 24.4 7 Sudoeste 13 Sudoeste 0 1012 -0.4 52
2018-08-24 03:00:00 24.7 5 Sudoeste 18 Sur 0 1012.2 -0.1 50
2018-08-24 02:00:00 25 14 Sur 24 Sur 0 1012.3 -0.1 50
2018-08-24 01:00:00 26.5 14 Sur 18 Sur 0 1012.4 0.8 48
2018-08-24 00:00:00 28.2 9 Sudoeste 18 Oeste 0 1012.3 1.5 43
2018-08-23 23:00:00 29.8 16 Oeste 24 Oeste 0 1012.4 2 35
2018-08-23 22:00:00 31.4 10 Sudoeste 21 Oeste 0 1011.6 1.1 34
2018-08-23 21:00:00 33.9 15 Sudoeste 24 Oeste 0 1010.8 0.6 26
2018-08-23 20:00:00 35.5 9 Oeste 26 Sudoeste 0 1010.4 -0.2 24
2018-08-23 19:00:00 34.7 19 Sudoeste 30 Oeste 0 1010.5 -0.7 28
2018-08-23 18:00:00 36.6 6 Oeste 22 Oeste 0 1010.2 -1.7 21
2018-08-23 17:00:00 38.5 8 Oeste 33 Oeste 0 1010.6 -1.8 17
2018-08-23 16:00:00 37.6 8 Oeste 24 Sudoeste 0 1011.2 -1.8 20
2018-08-23 15:00:00 36.2 5 Noroeste 18 Norte 0 1011.9 -1.1 22
2018-08-23 14:00:00 34.8 3 Nordeste 11 Este 0 1012.4 -0.3 26
2018-08-23 13:00:00 33.1 6 Sudeste 15 Sudeste 0 1013 0.7 30
2018-08-23 12:00:00 30.8 4 Noroeste 11 Oeste 0 1013 0.6 34
2018-08-23 11:00:00 28.2 4 Oeste 13 Norte 0 1012.7 0.6 42
2018-08-23 10:00:00 26 5 Noroeste 15 Norte 0 1012.3 0.8 52
2018-08-23 09:00:00 23.4 0 Calma 8 Nordeste 0 1012.4 0.8 61
2018-08-23 08:00:00 22.1 0 Calma 5 Este 0 1012.1 0.3 64
2018-08-23 07:00:00 22.6 0 Calma 11 Sudoeste 0 1011.5 -0.2 62
2018-08-23 06:00:00 23.2 6 Sur 11 Sudoeste 0 1011.6 -0.3 61
2018-08-23 05:00:00 22.7 11 Sudeste 13 Sudeste 0 1011.8 -0.4 67
2018-08-23 04:00:00 24.6 9 Sudoeste 21 Sudoeste 0 1011.7 -0.5 60
2018-08-23 03:00:00 25.5 9 Sudoeste 17 Sudoeste 0 1011.9 -0.3 53
2018-08-23 02:00:00 27.2 11 Sur 15 Sur 0 1012.2 0.4 43
2018-08-23 01:00:00 28 5 Oeste 13 Oeste 0 1012.2 1.1 38
2018-08-23 00:00:00 29.1 13 Oeste 28 Oeste 0 1012.2 2.1 36